Swift Current Airport, Saskatchewan

Past 24 Hour Conditions

This table is a summary of hourly weather conditions for the past 24 hours. This summary includes the following parameters: temperature, humidity, dew point, wind speed and direction, air pressure, visibility and/or wind chill and humidex.
Date / Time
(CST)
Conditions Temp (°F) Humidity (%) Dew Point (°F) Wind (mph) Pressure (inches) Visibility (miles)
23 April 2014
14:00 Light Rain 45 82 40 W 17 29.5 10
13:00 Light Rain 42 89 39 WSW 9 29.5 10
12:00 Light Rain 41 89 38 W 15 29.5 10
11:00 Light Rain 40   93 39 WSW 13 29.5 8
10:00 Light Rain 41 91 38 WSW 10 gust 18 29.5 10
9:00 Light Rain 41 95 40 SSE 8 29.5 4
8:00 Light Rain 41 94 39 SSE 8 29.5 10
7:00 Light Rain 41 93 40 ESE 8 29.4 10
6:00 N/A 43 85 39 N/A 29.4 10
5:00 Light Rain 47 64 36 SE 11 gust 18 29.4 10
4:00 Cloudy 49 55 33 ESE 16 gust 23 29.4 10
3:00 Cloudy 50 52 33 ESE 17 gust 24 29.4 10
2:00 Cloudy 52 47 32 SE 16 gust 24 29.4 10
1:00 Cloudy 53 45 32 ESE 23 gust 32 29.4 10
00:00 Cloudy 54 42 32 ESE 22 gust 33 29.4 10
22 April 2014
23:00 Mostly Cloudy 55 39 31 ESE 26 gust 38 29.4 10
22:00 Mainly Clear 55 38 31 ESE 22 gust 34 29.5 10
21:00 N/A 57 37 30 N/A 29.5 10
20:00 Cloudy 62 29 29 ESE 21 gust 31 29.5 10
19:00 Mainly Sunny 65 25 28 ESE 25 gust 37 29.5 10
18:00 Sunny 68 22 28 ESE 25 gust 34 29.5 10
17:00 N/A 70   19 26 SE 30 gust 40 29.6 10
16:00 N/A N/A N/A N/A N/A N/A N/A
15:00 N/A N/A N/A N/A N/A N/A N/A
14:00 N/A N/A N/A N/A N/A N/A N/A
N/A
Not available
 ↑ 
Highest temperature
 ↓ 
Lowest temperature

If you require additional historical weather information, please visit Climate Data Online.